Kyle, TX

6:12 AM CDT on September 30, 2014 (GMT -0500)
Austin Bergstrom International | Change Station
CLOSE
Current Station
Airport
Location: Austin Bergstrom,
Elevation: 541 ft
Nearby Weather Stations

Elev 541 ft 30.19 °N, 97.67 °W | Updated 19 minutes ago

Clear
Clear
63 °F
Feels Like 63 °F
N
0
Wind Variable Wind from North

Today
High -- | Low -- °F
--% Chance of Precip.
Yesterday
High -- | Low -- °F
Precip. -- in
7:24 AM 7:17 PM
Waxing Crescent, 35% visible
Pressure 29.86 in
Visibility 10.0 miles
Clouds Clear
Dew Point 62 °F
Humidity 97%
Rainfall 0.00 in
Snow Depth Not available.
UV 0 out of 12
Pollen 8.90 out of 12
Ozone Good
PM2.5 Good
Flu Activity Not available.
METAR KAUS 301053Z 00000KT 10SM CLR 17/17 A2989 RMK AO2 SLP112 T01720167

More Conditions Fewer Conditions

Pressure 29.86 in
Visibility 10.0 miles
Clouds Clear
Dew Point 62 °F
Humidity 97%
Rainfall 0.00 in
Snow Depth Not available.
UV 0 out of 12
Pollen 8.90 out of 12
Ozone Good
PM2.5 Good
Flu Activity Not available.
METAR KAUS 301053Z 00000KT 10SM CLR 17/17 A2989 RMK AO2 SLP112 T01720167

More Conditions Fewer Conditions

10-Day Weather Forecast

Almanac

Astronomy

Sep. 30, 2014 Rise Set
Actual Time 7:24 AM CDT 7:17 PM CDT
Civil Twilight 7:00 AM CDT 7:41 PM CDT
Nautical Twilight 6:32 AM CDT 8:09 PM CDT
Astronomical Twilight 6:04 AM CDT 8:37 PM CDT
Moon 1:14 PM CDT No Moon Set
Length of Visible Light 12h 41m
Length of Day
11h 53m
Tomorrow will be 1m 48s shorter.
Waxing Crescent, 35% of the Moon is Illuminated
Today
Waxing Crescent
Oct 1
First Quarter
Oct 8
Full
Oct 15
Last Quarter
Oct 23
New

Today's Extremes

State Highs State Lows

Community

WunderPhotos

Upload Photos

1,757,615 photos uploaded!

WunderBlogs® & News

Nearby

Air Quality

  Air Quality AQ Index Pollutant
Yesterday Good
OZONE
Yesterday Good
PM2.5
Current Good
PM2.5
Current Good
OZONE
Tuesday Moderate
OZONE
Tuesday Good
PM10
Wednesday Good
OZONE
Wednesday Good
PM10
Thursday Good
OZONE
Thursday Good
PM10

Snow Depth

Station Depth Elevation
No new snow has been reported.

Earthquake Activity

City Distance Mag. Time & Date
No recent earthquake activity has been reported nearby.
Minimum magnitude displayed is 2.5.

Coastal Water Temperatures

Place Temperature
No Stations Reporting

Nearby Weather Stations